Terminal Aerodrome Forecast
Issued by NWS

Home | Current Version | Previous Version | Text Only | Print | Product List | Glossary On
Versions: 1 2 3 4 5 6 7 8 9 10 11 12 13 14 15 16
000
FTUS46 KOTX 251722
TAFPUW
TAF
KPUW 251722Z 2518/2618 VRB04KT P6SM FEW100
     FM260100 36004KT P6SM SCT200
     FM260400 VRB02KT P6SM SCT200=

USA.gov is the U.S. government's official web portal to all federal, state and local government web resources and services.